Terminal Aerodrome Forecast
Issued by NWS

Home | Current Version | Previous Version | Text Only | Print | Product List | Glossary On
Versions: 1 2 3 4 5 6 7 8 9 10 11 12 13 14 15
000
FTUS44 KTSA 012300
TAFRVS
TAF
KRVS 012330Z 0200/0224 31010G25KT P6SM OVC035
     FM020300 34008G25KT P6SM SCT035
     FM020800 35008KT P6SM SKC
     FM021300 VRB03KT P6SM SKC
     FM021800 21005KT P6SM SCT250=

USA.gov is the U.S. government's official web portal to all federal, state and local government web resources and services.